sensor_id;sensor_type;location;lat;lon;timestamp;temperature;humidity
81524;DHT22;70954;49.500;10.416;2024-01-07T00:01:19;6.20;69.70
81524;DHT22;70954;49.500;10.416;2024-01-07T00:03:45;6.20;69.70
81524;DHT22;70954;49.500;10.416;2024-01-07T00:06:10;6.20;69.70
81524;DHT22;70954;49.500;10.416;2024-01-07T00:08:36;6.20;69.80
81524;DHT22;70954;49.500;10.416;2024-01-07T00:11:01;6.20;69.80
81524;DHT22;70954;49.500;10.416;2024-01-07T00:13:27;6.20;69.90
81524;DHT22;70954;49.500;10.416;2024-01-07T00:15:52;6.20;69.90
81524;DHT22;70954;49.500;10.416;2024-01-07T00:18:17;6.20;70.00
81524;DHT22;70954;49.500;10.416;2024-01-07T00:20:43;6.20;70.00
81524;DHT22;70954;49.500;10.416;2024-01-07T00:23:08;6.20;69.90
81524;DHT22;70954;49.500;10.416;2024-01-07T00:25:34;6.20;69.90
81524;DHT22;70954;49.500;10.416;2024-01-07T00:27:59;6.20;69.90
81524;DHT22;70954;49.500;10.416;2024-01-07T00:30:24;6.20;69.80
81524;DHT22;70954;49.500;10.416;2024-01-07T00:32:50;6.20;69.90
81524;DHT22;70954;49.500;10.416;2024-01-07T00:35:15;6.30;69.90
81524;DHT22;70954;49.500;10.416;2024-01-07T00:37:41;6.30;69.80
81524;DHT22;70954;49.500;10.416;2024-01-07T00:40:07;6.30;69.90
81524;DHT22;70954;49.500;10.416;2024-01-07T00:42:32;6.30;69.80
81524;DHT22;70954;49.500;10.416;2024-01-07T00:44:58;6.30;69.80
81524;DHT22;70954;49.500;10.416;2024-01-07T00:47:23;6.30;69.70
81524;DHT22;70954;49.500;10.416;2024-01-07T00:49:48;6.30;69.60
81524;DHT22;70954;49.500;10.416;2024-01-07T00:52:14;6.30;69.50
81524;DHT22;70954;49.500;10.416;2024-01-07T00:54:39;6.20;69.40
81524;DHT22;70954;49.500;10.416;2024-01-07T00:57:05;6.30;69.40
81524;DHT22;70954;49.500;10.416;2024-01-07T00:59:30;6.20;69.50
81524;DHT22;70954;49.500;10.416;2024-01-07T01:01:56;6.20;69.50
81524;DHT22;70954;49.500;10.416;2024-01-07T01:04:22;6.20;69.60
81524;DHT22;70954;49.500;10.416;2024-01-07T01:06:47;6.20;69.70
81524;DHT22;70954;49.500;10.416;2024-01-07T01:09:13;6.20;69.80
81524;DHT22;70954;49.500;10.416;2024-01-07T01:11:38;6.20;69.80
81524;DHT22;70954;49.500;10.416;2024-01-07T01:14:04;6.20;69.90
81524;DHT22;70954;49.500;10.416;2024-01-07T01:16:29;6.20;69.80
81524;DHT22;70954;49.500;10.416;2024-01-07T01:18:54;6.20;69.80
81524;DHT22;70954;49.500;10.416;2024-01-07T01:21:20;6.20;69.90
81524;DHT22;70954;49.500;10.416;2024-01-07T01:23:46;6.30;69.90
81524;DHT22;70954;49.500;10.416;2024-01-07T01:26:12;6.30;69.80
81524;DHT22;70954;49.500;10.416;2024-01-07T01:28:37;6.30;69.90
81524;DHT22;70954;49.500;10.416;2024-01-07T01:31:03;6.30;69.90
81524;DHT22;70954;49.500;10.416;2024-01-07T01:33:28;6.30;69.80
81524;DHT22;70954;49.500;10.416;2024-01-07T01:35:54;6.30;69.80
81524;DHT22;70954;49.500;10.416;2024-01-07T01:38:19;6.30;69.80
81524;DHT22;70954;49.500;10.416;2024-01-07T01:40:51;6.40;69.80
81524;DHT22;70954;49.500;10.416;2024-01-07T01:43:26;6.40;69.70
81524;DHT22;70954;49.500;10.416;2024-01-07T01:45:55;6.40;69.70
81524;DHT22;70954;49.500;10.416;2024-01-07T01:48:22;6.40;69.70
81524;DHT22;70954;49.500;10.416;2024-01-07T01:50:48;6.40;69.70
81524;DHT22;70954;49.500;10.416;2024-01-07T01:53:14;6.40;69.60
81524;DHT22;70954;49.500;10.416;2024-01-07T01:55:40;6.40;69.60
81524;DHT22;70954;49.500;10.416;2024-01-07T01:58:09;6.40;69.60
81524;DHT22;70954;49.500;10.416;2024-01-07T02:00:34;6.50;69.60
81524;DHT22;70954;49.500;10.416;2024-01-07T02:03:00;6.50;69.60
81524;DHT22;70954;49.500;10.416;2024-01-07T02:05:25;6.50;69.60
81524;DHT22;70954;49.500;10.416;2024-01-07T02:07:51;6.50;69.60
81524;DHT22;70954;49.500;10.416;2024-01-07T02:10:16;6.50;69.50
81524;DHT22;70954;49.500;10.416;2024-01-07T02:12:42;6.50;69.40
81524;DHT22;70954;49.500;10.416;2024-01-07T02:15:07;6.50;69.40
81524;DHT22;70954;49.500;10.416;2024-01-07T02:17:33;6.50;69.40
81524;DHT22;70954;49.500;10.416;2024-01-07T02:19:58;6.50;69.40
81524;DHT22;70954;49.500;10.416;2024-01-07T02:22:24;6.60;69.40
81524;DHT22;70954;49.500;10.416;2024-01-07T02:24:49;6.60;69.30
81524;DHT22;70954;49.500;10.416;2024-01-07T02:27:15;6.60;69.30
81524;DHT22;70954;49.500;10.416;2024-01-07T02:29:40;6.60;69.20
81524;DHT22;70954;49.500;10.416;2024-01-07T02:32:06;6.60;69.20
81524;DHT22;70954;49.500;10.416;2024-01-07T02:34:31;6.60;69.10
81524;DHT22;70954;49.500;10.416;2024-01-07T02:36:57;6.60;69.00
81524;DHT22;70954;49.500;10.416;2024-01-07T02:39:22;6.60;69.00
81524;DHT22;70954;49.500;10.416;2024-01-07T02:41:48;6.60;68.90
81524;DHT22;70954;49.500;10.416;2024-01-07T02:44:14;6.60;68.90
81524;DHT22;70954;49.500;10.416;2024-01-07T02:46:39;6.60;68.90
81524;DHT22;70954;49.500;10.416;2024-01-07T02:49:05;6.60;68.80
81524;DHT22;70954;49.500;10.416;2024-01-07T02:51:30;6.60;68.80
81524;DHT22;70954;49.500;10.416;2024-01-07T02:53:56;6.60;68.80
81524;DHT22;70954;49.500;10.416;2024-01-07T02:56:21;6.60;68.70
81524;DHT22;70954;49.500;10.416;2024-01-07T02:58:47;6.60;68.70
81524;DHT22;70954;49.500;10.416;2024-01-07T03:01:12;6.60;68.70
81524;DHT22;70954;49.500;10.416;2024-01-07T03:03:37;6.60;68.70
81524;DHT22;70954;49.500;10.416;2024-01-07T03:06:03;6.60;68.70
81524;DHT22;70954;49.500;10.416;2024-01-07T03:08:28;6.60;68.60
81524;DHT22;70954;49.500;10.416;2024-01-07T03:10:54;6.60;68.50
81524;DHT22;70954;49.500;10.416;2024-01-07T03:13:20;6.60;68.40
81524;DHT22;70954;49.500;10.416;2024-01-07T03:15:45;6.60;68.30
81524;DHT22;70954;49.500;10.416;2024-01-07T03:18:11;6.60;68.40
81524;DHT22;70954;49.500;10.416;2024-01-07T03:20:36;6.60;68.30
81524;DHT22;70954;49.500;10.416;2024-01-07T03:23:02;6.60;68.30
81524;DHT22;70954;49.500;10.416;2024-01-07T03:25:27;6.60;68.20
81524;DHT22;70954;49.500;10.416;2024-01-07T03:27:52;6.60;68.20
81524;DHT22;70954;49.500;10.416;2024-01-07T03:30:18;6.60;68.00
81524;DHT22;70954;49.500;10.416;2024-01-07T03:32:43;6.50;67.90
81524;DHT22;70954;49.500;10.416;2024-01-07T03:35:09;6.50;67.80
81524;DHT22;70954;49.500;10.416;2024-01-07T03:37:35;6.50;67.80
81524;DHT22;70954;49.500;10.416;2024-01-07T03:40:00;6.50;67.70
81524;DHT22;70954;49.500;10.416;2024-01-07T03:42:26;6.40;67.70
81524;DHT22;70954;49.500;10.416;2024-01-07T03:44:51;6.40;67.30
81524;DHT22;70954;49.500;10.416;2024-01-07T03:47:17;6.40;67.50
81524;DHT22;70954;49.500;10.416;2024-01-07T03:49:42;6.30;67.50
81524;DHT22;70954;49.500;10.416;2024-01-07T03:52:08;6.30;67.50
81524;DHT22;70954;49.500;10.416;2024-01-07T03:54:33;6.20;67.60
81524;DHT22;70954;49.500;10.416;2024-01-07T03:56:59;6.20;67.60
81524;DHT22;70954;49.500;10.416;2024-01-07T03:59:24;6.20;67.60
81524;DHT22;70954;49.500;10.416;2024-01-07T04:01:50;6.20;67.60
81524;DHT22;70954;49.500;10.416;2024-01-07T04:04:15;6.10;67.50
81524;DHT22;70954;49.500;10.416;2024-01-07T04:06:41;6.10;67.30
81524;DHT22;70954;49.500;10.416;2024-01-07T04:09:07;6.10;67.50
81524;DHT22;70954;49.500;10.416;2024-01-07T04:11:32;6.00;67.40
81524;DHT22;70954;49.500;10.416;2024-01-07T04:13:57;6.00;67.50
81524;DHT22;70954;49.500;10.416;2024-01-07T04:16:23;6.00;67.60
81524;DHT22;70954;49.500;10.416;2024-01-07T04:18:48;6.00;67.70
81524;DHT22;70954;49.500;10.416;2024-01-07T04:21:14;6.00;67.70
81524;DHT22;70954;49.500;10.416;2024-01-07T04:23:39;6.00;67.70
81524;DHT22;70954;49.500;10.416;2024-01-07T04:26:05;5.90;67.70
81524;DHT22;70954;49.500;10.416;2024-01-07T04:28:30;5.90;67.50
81524;DHT22;70954;49.500;10.416;2024-01-07T04:30:56;5.90;67.60
81524;DHT22;70954;49.500;10.416;2024-01-07T04:33:22;5.90;67.50
81524;DHT22;70954;49.500;10.416;2024-01-07T04:35:47;5.80;67.50
81524;DHT22;70954;49.500;10.416;2024-01-07T04:38:13;5.90;67.50
81524;DHT22;70954;49.500;10.416;2024-01-07T04:40:39;5.80;67.60
81524;DHT22;70954;49.500;10.416;2024-01-07T04:43:04;5.80;67.50
81524;DHT22;70954;49.500;10.416;2024-01-07T04:45:29;5.80;67.60
81524;DHT22;70954;49.500;10.416;2024-01-07T04:47:55;5.80;67.70
81524;DHT22;70954;49.500;10.416;2024-01-07T04:50:20;5.70;67.70
81524;DHT22;70954;49.500;10.416;2024-01-07T04:52:46;5.70;67.50
81524;DHT22;70954;49.500;10.416;2024-01-07T04:55:12;5.70;67.60
81524;DHT22;70954;49.500;10.416;2024-01-07T04:57:37;5.70;67.70
81524;DHT22;70954;49.500;10.416;2024-01-07T05:00:04;5.70;67.70
81524;DHT22;70954;49.500;10.416;2024-01-07T05:02:29;5.70;67.80
81524;DHT22;70954;49.500;10.416;2024-01-07T05:04:55;5.70;67.80
81524;DHT22;70954;49.500;10.416;2024-01-07T05:07:20;5.70;67.70
81524;DHT22;70954;49.500;10.416;2024-01-07T05:09:46;5.60;67.40
81524;DHT22;70954;49.500;10.416;2024-01-07T05:12:11;5.60;67.50
81524;DHT22;70954;49.500;10.416;2024-01-07T05:14:37;5.60;67.60
81524;DHT22;70954;49.500;10.416;2024-01-07T05:17:02;5.60;67.50
81524;DHT22;70954;49.500;10.416;2024-01-07T05:19:28;5.60;67.50
81524;DHT22;70954;49.500;10.416;2024-01-07T05:21:54;5.60;67.50
81524;DHT22;70954;49.500;10.416;2024-01-07T05:24:19;5.60;67.20
81524;DHT22;70954;49.500;10.416;2024-01-07T05:26:45;5.60;67.30
81524;DHT22;70954;49.500;10.416;2024-01-07T05:29:11;5.50;67.20
81524;DHT22;70954;49.500;10.416;2024-01-07T05:31:36;5.50;67.30
81524;DHT22;70954;49.500;10.416;2024-01-07T05:34:02;5.50;67.30
81524;DHT22;70954;49.500;10.416;2024-01-07T05:36:27;5.50;67.10
81524;DHT22;70954;49.500;10.416;2024-01-07T05:38:53;5.50;67.20
81524;DHT22;70954;49.500;10.416;2024-01-07T05:41:18;5.50;67.20
81524;DHT22;70954;49.500;10.416;2024-01-07T05:43:44;5.50;67.20
81524;DHT22;70954;49.500;10.416;2024-01-07T05:46:09;5.40;67.20
81524;DHT22;70954;49.500;10.416;2024-01-07T05:48:45;5.40;67.20
81524;DHT22;70954;49.500;10.416;2024-01-07T05:51:11;5.40;67.20
81524;DHT22;70954;49.500;10.416;2024-01-07T05:53:37;5.30;67.30
81524;DHT22;70954;49.500;10.416;2024-01-07T05:56:03;5.30;67.20
81524;DHT22;70954;49.500;10.416;2024-01-07T05:58:29;5.30;67.20
81524;DHT22;70954;49.500;10.416;2024-01-07T06:00:54;5.30;67.20
81524;DHT22;70954;49.500;10.416;2024-01-07T06:03:20;5.30;67.20
81524;DHT22;70954;49.500;10.416;2024-01-07T06:05:45;5.30;67.20
81524;DHT22;70954;49.500;10.416;2024-01-07T06:08:10;5.30;67.20
81524;DHT22;70954;49.500;10.416;2024-01-07T06:10:36;5.30;67.20
81524;DHT22;70954;49.500;10.416;2024-01-07T06:13:01;5.30;67.10
81524;DHT22;70954;49.500;10.416;2024-01-07T06:15:27;5.30;67.00
81524;DHT22;70954;49.500;10.416;2024-01-07T06:17:52;5.20;66.90
81524;DHT22;70954;49.500;10.416;2024-01-07T06:20:18;5.10;66.90
81524;DHT22;70954;49.500;10.416;2024-01-07T06:22:43;5.10;66.90
81524;DHT22;70954;49.500;10.416;2024-01-07T06:25:08;5.10;66.70
81524;DHT22;70954;49.500;10.416;2024-01-07T06:27:34;5.10;66.80
81524;DHT22;70954;49.500;10.416;2024-01-07T06:29:59;5.00;66.90
81524;DHT22;70954;49.500;10.416;2024-01-07T06:32:25;5.00;66.90
81524;DHT22;70954;49.500;10.416;2024-01-07T06:34:50;5.00;66.90
81524;DHT22;70954;49.500;10.416;2024-01-07T06:37:16;5.00;66.90
81524;DHT22;70954;49.500;10.416;2024-01-07T06:39:41;5.00;66.80
81524;DHT22;70954;49.500;10.416;2024-01-07T06:42:07;5.00;66.80
81524;DHT22;70954;49.500;10.416;2024-01-07T06:44:32;5.00;66.80
81524;DHT22;70954;49.500;10.416;2024-01-07T06:46:57;4.90;66.80
81524;DHT22;70954;49.500;10.416;2024-01-07T06:49:23;4.90;66.60
81524;DHT22;70954;49.500;10.416;2024-01-07T06:51:48;4.90;66.70
81524;DHT22;70954;49.500;10.416;2024-01-07T06:54:14;4.80;66.70
81524;DHT22;70954;49.500;10.416;2024-01-07T06:56:39;4.80;66.80
81524;DHT22;70954;49.500;10.416;2024-01-07T06:59:05;4.70;66.80
81524;DHT22;70954;49.500;10.416;2024-01-07T07:01:30;4.70;66.80
81524;DHT22;70954;49.500;10.416;2024-01-07T07:03:55;4.70;66.90
81524;DHT22;70954;49.500;10.416;2024-01-07T07:06:21;4.70;66.90
81524;DHT22;70954;49.500;10.416;2024-01-07T07:08:46;4.70;66.90
81524;DHT22;70954;49.500;10.416;2024-01-07T07:11:12;4.70;67.00
81524;DHT22;70954;49.500;10.416;2024-01-07T07:13:37;4.70;66.80
81524;DHT22;70954;49.500;10.416;2024-01-07T07:16:03;4.70;66.60
81524;DHT22;70954;49.500;10.416;2024-01-07T07:18:28;4.70;66.60
81524;DHT22;70954;49.500;10.416;2024-01-07T07:20:54;4.70;66.80
81524;DHT22;70954;49.500;10.416;2024-01-07T07:23:19;4.60;66.80
81524;DHT22;70954;49.500;10.416;2024-01-07T07:25:45;4.60;67.00
81524;DHT22;70954;49.500;10.416;2024-01-07T07:28:10;4.50;67.00
81524;DHT22;70954;49.500;10.416;2024-01-07T07:30:36;4.50;67.00
81524;DHT22;70954;49.500;10.416;2024-01-07T07:33:02;4.50;67.00
81524;DHT22;70954;49.500;10.416;2024-01-07T07:35:27;4.50;67.00
81524;DHT22;70954;49.500;10.416;2024-01-07T07:37:53;4.50;67.00
81524;DHT22;70954;49.500;10.416;2024-01-07T07:40:18;4.50;67.00
81524;DHT22;70954;49.500;10.416;2024-01-07T07:42:43;4.50;66.90
81524;DHT22;70954;49.500;10.416;2024-01-07T07:45:09;4.50;67.00
81524;DHT22;70954;49.500;10.416;2024-01-07T07:47:34;4.50;67.00
81524;DHT22;70954;49.500;10.416;2024-01-07T07:50:00;4.50;67.00
81524;DHT22;70954;49.500;10.416;2024-01-07T07:52:25;4.50;66.60
81524;DHT22;70954;49.500;10.416;2024-01-07T07:54:54;4.50;66.60
81524;DHT22;70954;49.500;10.416;2024-01-07T07:57:19;4.50;66.60
81524;DHT22;70954;49.500;10.416;2024-01-07T07:59:45;4.50;66.50
81524;DHT22;70954;49.500;10.416;2024-01-07T08:02:10;4.50;66.60
81524;DHT22;70954;49.500;10.416;2024-01-07T08:04:36;4.50;66.60
81524;DHT22;70954;49.500;10.416;2024-01-07T08:07:01;4.50;66.70
81524;DHT22;70954;49.500;10.416;2024-01-07T08:09:27;4.50;66.70
81524;DHT22;70954;49.500;10.416;2024-01-07T08:11:52;4.50;66.50
81524;DHT22;70954;49.500;10.416;2024-01-07T08:14:18;4.50;66.50
81524;DHT22;70954;49.500;10.416;2024-01-07T08:16:43;4.50;66.50
81524;DHT22;70954;49.500;10.416;2024-01-07T08:19:08;4.50;66.40
81524;DHT22;70954;49.500;10.416;2024-01-07T08:21:34;4.40;66.40
81524;DHT22;70954;49.500;10.416;2024-01-07T08:23:59;4.40;66.40
81524;DHT22;70954;49.500;10.416;2024-01-07T08:26:25;4.40;66.20
81524;DHT22;70954;49.500;10.416;2024-01-07T08:28:50;4.40;66.20
81524;DHT22;70954;49.500;10.416;2024-01-07T08:31:16;4.40;66.20
81524;DHT22;70954;49.500;10.416;2024-01-07T08:33:41;4.40;66.20
81524;DHT22;70954;49.500;10.416;2024-01-07T08:36:07;4.40;66.40
81524;DHT22;70954;49.500;10.416;2024-01-07T08:38:32;4.40;66.50
81524;DHT22;70954;49.500;10.416;2024-01-07T08:40:58;4.40;66.50
81524;DHT22;70954;49.500;10.416;2024-01-07T08:43:23;4.40;66.20
81524;DHT22;70954;49.500;10.416;2024-01-07T08:45:48;4.40;65.90
81524;DHT22;70954;49.500;10.416;2024-01-07T08:48:14;4.40;65.80
81524;DHT22;70954;49.500;10.416;2024-01-07T08:50:39;4.40;65.70
81524;DHT22;70954;49.500;10.416;2024-01-07T08:53:05;4.30;65.80
81524;DHT22;70954;49.500;10.416;2024-01-07T08:55:30;4.30;65.60
81524;DHT22;70954;49.500;10.416;2024-01-07T08:57:56;4.30;65.60
81524;DHT22;70954;49.500;10.416;2024-01-07T09:00:22;4.30;64.90
81524;DHT22;70954;49.500;10.416;2024-01-07T09:02:47;4.20;65.10
81524;DHT22;70954;49.500;10.416;2024-01-07T09:05:13;4.20;65.10
81524;DHT22;70954;49.500;10.416;2024-01-07T09:07:38;4.20;65.10
81524;DHT22;70954;49.500;10.416;2024-01-07T09:10:04;4.10;65.30
81524;DHT22;70954;49.500;10.416;2024-01-07T09:12:29;4.10;65.50
81524;DHT22;70954;49.500;10.416;2024-01-07T09:14:55;4.10;65.50
81524;DHT22;70954;49.500;10.416;2024-01-07T09:17:20;4.00;65.60
81524;DHT22;70954;49.500;10.416;2024-01-07T09:19:46;4.00;65.50
81524;DHT22;70954;49.500;10.416;2024-01-07T09:22:11;4.00;65.30
81524;DHT22;70954;49.500;10.416;2024-01-07T09:24:37;4.00;65.40
81524;DHT22;70954;49.500;10.416;2024-01-07T09:27:02;3.90;65.20
81524;DHT22;70954;49.500;10.416;2024-01-07T09:29:28;3.90;65.30
81524;DHT22;70954;49.500;10.416;2024-01-07T09:31:53;3.90;65.00
81524;DHT22;70954;49.500;10.416;2024-01-07T09:34:19;3.90;65.50
81524;DHT22;70954;49.500;10.416;2024-01-07T09:36:44;3.90;65.20
81524;DHT22;70954;49.500;10.416;2024-01-07T09:39:09;3.80;65.40
81524;DHT22;70954;49.500;10.416;2024-01-07T09:41:35;3.80;65.40
81524;DHT22;70954;49.500;10.416;2024-01-07T09:44:01;3.80;65.40
81524;DHT22;70954;49.500;10.416;2024-01-07T09:46:29;3.70;65.60
81524;DHT22;70954;49.500;10.416;2024-01-07T09:48:54;3.70;65.40
81524;DHT22;70954;49.500;10.416;2024-01-07T09:51:22;3.70;65.40
81524;DHT22;70954;49.500;10.416;2024-01-07T09:53:48;3.70;65.50
81524;DHT22;70954;49.500;10.416;2024-01-07T09:56:24;3.70;65.40
81524;DHT22;70954;49.500;10.416;2024-01-07T09:58:50;3.60;65.30
81524;DHT22;70954;49.500;10.416;2024-01-07T10:01:17;3.60;65.60
81524;DHT22;70954;49.500;10.416;2024-01-07T10:03:43;3.60;65.70
81524;DHT22;70954;49.500;10.416;2024-01-07T10:06:10;3.60;65.60
81524;DHT22;70954;49.500;10.416;2024-01-07T10:08:37;3.60;65.60
81524;DHT22;70954;49.500;10.416;2024-01-07T10:11:02;3.60;65.50
81524;DHT22;70954;49.500;10.416;2024-01-07T10:13:28;3.50;65.40
81524;DHT22;70954;49.500;10.416;2024-01-07T10:15:53;3.50;65.30
81524;DHT22;70954;49.500;10.416;2024-01-07T10:18:19;3.50;65.30
81524;DHT22;70954;49.500;10.416;2024-01-07T10:20:44;3.50;65.30
81524;DHT22;70954;49.500;10.416;2024-01-07T10:23:10;3.50;65.10
81524;DHT22;70954;49.500;10.416;2024-01-07T10:25:35;3.50;65.10
81524;DHT22;70954;49.500;10.416;2024-01-07T10:28:02;3.40;65.20
81524;DHT22;70954;49.500;10.416;2024-01-07T10:30:30;3.30;64.90
81524;DHT22;70954;49.500;10.416;2024-01-07T10:32:57;3.30;65.10
81524;DHT22;70954;49.500;10.416;2024-01-07T10:35:29;3.30;65.40
81524;DHT22;70954;49.500;10.416;2024-01-07T10:37:57;3.30;65.20
81524;DHT22;70954;49.500;10.416;2024-01-07T10:40:23;3.20;65.40
81524;DHT22;70954;49.500;10.416;2024-01-07T10:42:49;3.10;65.00
81524;DHT22;70954;49.500;10.416;2024-01-07T10:45:16;3.10;65.30
81524;DHT22;70954;49.500;10.416;2024-01-07T10:47:48;3.10;65.40
81524;DHT22;70954;49.500;10.416;2024-01-07T10:50:14;3.10;65.60
81524;DHT22;70954;49.500;10.416;2024-01-07T10:52:40;3.10;65.50
81524;DHT22;70954;49.500;10.416;2024-01-07T10:55:09;3.10;65.70
81524;DHT22;70954;49.500;10.416;2024-01-07T10:57:45;3.00;65.90
81524;DHT22;70954;49.500;10.416;2024-01-07T11:00:13;3.00;65.80
81524;DHT22;70954;49.500;10.416;2024-01-07T11:02:59;3.00;65.70
81524;DHT22;70954;49.500;10.416;2024-01-07T11:05:43;3.00;65.80
81524;DHT22;70954;49.500;10.416;2024-01-07T11:08:15;3.00;65.90
81524;DHT22;70954;49.500;10.416;2024-01-07T11:10:50;3.00;65.80
81524;DHT22;70954;49.500;10.416;2024-01-07T11:13:32;3.00;66.00
81524;DHT22;70954;49.500;10.416;2024-01-07T11:15:58;3.00;65.80
81524;DHT22;70954;49.500;10.416;2024-01-07T11:18:23;3.00;65.80
81524;DHT22;70954;49.500;10.416;2024-01-07T11:20:53;3.00;65.70
81524;DHT22;70954;49.500;10.416;2024-01-07T11:23:32;3.00;65.60
81524;DHT22;70954;49.500;10.416;2024-01-07T11:25:58;3.00;65.60
81524;DHT22;70954;49.500;10.416;2024-01-07T11:28:46;2.90;65.80
81524;DHT22;70954;49.500;10.416;2024-01-07T11:31:12;2.90;65.60
81524;DHT22;70954;49.500;10.416;2024-01-07T11:33:37;2.90;65.60
81524;DHT22;70954;49.500;10.416;2024-01-07T11:36:04;2.90;65.70
81524;DHT22;70954;49.500;10.416;2024-01-07T11:38:30;2.90;65.50
81524;DHT22;70954;49.500;10.416;2024-01-07T11:40:56;2.90;65.50
81524;DHT22;70954;49.500;10.416;2024-01-07T11:43:22;2.90;65.40
81524;DHT22;70954;49.500;10.416;2024-01-07T11:45:50;2.80;65.60
81524;DHT22;70954;49.500;10.416;2024-01-07T11:48:15;2.80;65.50
81524;DHT22;70954;49.500;10.416;2024-01-07T11:50:41;2.80;65.50
81524;DHT22;70954;49.500;10.416;2024-01-07T11:53:07;2.80;65.50
81524;DHT22;70954;49.500;10.416;2024-01-07T11:55:33;2.80;65.70
81524;DHT22;70954;49.500;10.416;2024-01-07T11:58:01;2.70;65.60
81524;DHT22;70954;49.500;10.416;2024-01-07T12:00:26;2.70;65.60
81524;DHT22;70954;49.500;10.416;2024-01-07T12:02:52;2.70;65.60
81524;DHT22;70954;49.500;10.416;2024-01-07T12:05:17;2.70;65.60
81524;DHT22;70954;49.500;10.416;2024-01-07T12:07:43;2.60;65.60
81524;DHT22;70954;49.500;10.416;2024-01-07T12:10:08;2.60;65.60
81524;DHT22;70954;49.500;10.416;2024-01-07T12:12:34;2.50;65.50
81524;DHT22;70954;49.500;10.416;2024-01-07T12:14:59;2.50;65.50
81524;DHT22;70954;49.500;10.416;2024-01-07T12:17:26;2.50;65.60
81524;DHT22;70954;49.500;10.416;2024-01-07T12:19:51;2.50;65.60
81524;DHT22;70954;49.500;10.416;2024-01-07T12:22:17;2.50;65.50
81524;DHT22;70954;49.500;10.416;2024-01-07T12:24:43;2.50;65.60
81524;DHT22;70954;49.500;10.416;2024-01-07T12:27:08;2.40;65.70
81524;DHT22;70954;49.500;10.416;2024-01-07T12:29:34;2.40;65.60
81524;DHT22;70954;49.500;10.416;2024-01-07T12:31:59;2.40;65.80
81524;DHT22;70954;49.500;10.416;2024-01-07T12:34:25;2.40;65.80
81524;DHT22;70954;49.500;10.416;2024-01-07T12:36:50;2.40;66.10
81524;DHT22;70954;49.500;10.416;2024-01-07T12:39:16;2.40;66.20
81524;DHT22;70954;49.500;10.416;2024-01-07T12:41:41;2.40;66.10
81524;DHT22;70954;49.500;10.416;2024-01-07T12:44:07;2.40;65.50
81524;DHT22;70954;49.500;10.416;2024-01-07T12:46:32;2.40;66.00
81524;DHT22;70954;49.500;10.416;2024-01-07T12:48:58;2.40;65.90
81524;DHT22;70954;49.500;10.416;2024-01-07T12:51:23;2.40;65.80
81524;DHT22;70954;49.500;10.416;2024-01-07T12:53:49;2.40;65.60
81524;DHT22;70954;49.500;10.416;2024-01-07T12:56:14;2.30;65.80
81524;DHT22;70954;49.500;10.416;2024-01-07T12:58:39;2.40;65.40
81524;DHT22;70954;49.500;10.416;2024-01-07T13:01:05;2.30;65.50
81524;DHT22;70954;49.500;10.416;2024-01-07T13:03:30;2.30;65.40
81524;DHT22;70954;49.500;10.416;2024-01-07T13:05:56;2.30;65.60
81524;DHT22;70954;49.500;10.416;2024-01-07T13:08:22;2.30;65.30
81524;DHT22;70954;49.500;10.416;2024-01-07T13:10:47;2.30;65.60
81524;DHT22;70954;49.500;10.416;2024-01-07T13:13:13;2.20;65.30
81524;DHT22;70954;49.500;10.416;2024-01-07T13:15:39;2.20;65.30
81524;DHT22;70954;49.500;10.416;2024-01-07T13:18:04;2.20;65.60
81524;DHT22;70954;49.500;10.416;2024-01-07T13:20:30;2.20;65.60
81524;DHT22;70954;49.500;10.416;2024-01-07T13:22:55;2.20;65.60
81524;DHT22;70954;49.500;10.416;2024-01-07T13:25:21;2.20;65.60
81524;DHT22;70954;49.500;10.416;2024-01-07T13:27:46;2.20;65.50
81524;DHT22;70954;49.500;10.416;2024-01-07T13:30:11;2.20;65.30
81524;DHT22;70954;49.500;10.416;2024-01-07T13:32:37;2.20;65.10
81524;DHT22;70954;49.500;10.416;2024-01-07T13:35:04;2.20;65.40
81524;DHT22;70954;49.500;10.416;2024-01-07T13:37:30;2.20;65.30
81524;DHT22;70954;49.500;10.416;2024-01-07T13:39:56;2.20;65.40
81524;DHT22;70954;49.500;10.416;2024-01-07T13:42:21;2.20;65.50
81524;DHT22;70954;49.500;10.416;2024-01-07T13:44:46;2.20;65.30
81524;DHT22;70954;49.500;10.416;2024-01-07T13:47:16;2.20;65.30
81524;DHT22;70954;49.500;10.416;2024-01-07T13:49:41;2.20;65.20
81524;DHT22;70954;49.500;10.416;2024-01-07T13:52:07;2.20;64.90
81524;DHT22;70954;49.500;10.416;2024-01-07T13:54:32;2.20;64.80
81524;DHT22;70954;49.500;10.416;2024-01-07T13:56:58;2.20;64.90
81524;DHT22;70954;49.500;10.416;2024-01-07T13:59:23;2.20;64.80
81524;DHT22;70954;49.500;10.416;2024-01-07T14:01:49;2.20;64.80
81524;DHT22;70954;49.500;10.416;2024-01-07T14:04:14;2.20;64.70
81524;DHT22;70954;49.500;10.416;2024-01-07T14:06:40;2.20;64.70
81524;DHT22;70954;49.500;10.416;2024-01-07T14:09:05;2.20;64.50
81524;DHT22;70954;49.500;10.416;2024-01-07T14:11:31;2.10;64.60
81524;DHT22;70954;49.500;10.416;2024-01-07T14:13:56;2.10;64.50
81524;DHT22;70954;49.500;10.416;2024-01-07T14:16:22;2.10;64.80
81524;DHT22;70954;49.500;10.416;2024-01-07T14:18:47;2.10;64.80
81524;DHT22;70954;49.500;10.416;2024-01-07T14:21:12;2.10;64.70
81524;DHT22;70954;49.500;10.416;2024-01-07T14:23:38;2.10;64.80
81524;DHT22;70954;49.500;10.416;2024-01-07T14:26:03;2.10;64.50
81524;DHT22;70954;49.500;10.416;2024-01-07T14:28:29;2.10;64.40
81524;DHT22;70954;49.500;10.416;2024-01-07T14:30:55;2.10;64.30
81524;DHT22;70954;49.500;10.416;2024-01-07T14:33:20;2.00;64.10
81524;DHT22;70954;49.500;10.416;2024-01-07T14:35:45;2.00;64.10
81524;DHT22;70954;49.500;10.416;2024-01-07T14:38:11;2.00;64.10
81524;DHT22;70954;49.500;10.416;2024-01-07T14:40:36;2.00;64.30
81524;DHT22;70954;49.500;10.416;2024-01-07T14:43:02;2.00;64.00
81524;DHT22;70954;49.500;10.416;2024-01-07T14:45:27;1.90;63.40
81524;DHT22;70954;49.500;10.416;2024-01-07T14:47:53;1.90;63.50
81524;DHT22;70954;49.500;10.416;2024-01-07T14:50:20;1.90;63.70
81524;DHT22;70954;49.500;10.416;2024-01-07T14:52:46;1.90;64.10
81524;DHT22;70954;49.500;10.416;2024-01-07T14:55:11;1.90;64.00
81524;DHT22;70954;49.500;10.416;2024-01-07T14:57:37;1.90;64.00
81524;DHT22;70954;49.500;10.416;2024-01-07T15:00:02;1.80;63.80
81524;DHT22;70954;49.500;10.416;2024-01-07T15:02:28;1.80;63.70
81524;DHT22;70954;49.500;10.416;2024-01-07T15:04:53;1.80;64.00
81524;DHT22;70954;49.500;10.416;2024-01-07T15:07:19;1.80;63.70
81524;DHT22;70954;49.500;10.416;2024-01-07T15:09:44;1.80;63.40
81524;DHT22;70954;49.500;10.416;2024-01-07T15:12:10;1.70;63.80
81524;DHT22;70954;49.500;10.416;2024-01-07T15:14:35;1.70;63.60
81524;DHT22;70954;49.500;10.416;2024-01-07T15:17:01;1.70;63.70
81524;DHT22;70954;49.500;10.416;2024-01-07T15:19:26;1.70;63.70
81524;DHT22;70954;49.500;10.416;2024-01-07T15:21:52;1.70;63.80